sensor_id;sensor_type;location;lat;lon;timestamp;P1;durP1;ratioP1;P2;durP2;ratioP2
73857;SDS011;62195;55.030;73.278;2022-09-25T00:01:12;46.88;;;17.02;;
73857;SDS011;62195;55.030;73.278;2022-09-25T00:03:48;61.20;;;18.77;;
73857;SDS011;62195;55.030;73.278;2022-09-25T00:06:16;56.00;;;18.17;;
73857;SDS011;62195;55.030;73.278;2022-09-25T00:08:44;52.70;;;17.92;;
73857;SDS011;62195;55.030;73.278;2022-09-25T00:11:20;48.03;;;17.45;;
73857;SDS011;62195;55.030;73.278;2022-09-25T00:13:50;45.08;;;15.73;;
73857;SDS011;62195;55.030;73.278;2022-09-25T00:16:18;47.88;;;16.25;;
73857;SDS011;62195;55.030;73.278;2022-09-25T00:18:55;44.15;;;17.42;;
73857;SDS011;62195;55.030;73.278;2022-09-25T00:21:41;47.33;;;18.10;;
73857;SDS011;62195;55.030;73.278;2022-09-25T00:24:09;44.67;;;19.50;;
73857;SDS011;62195;55.030;73.278;2022-09-25T00:26:41;45.15;;;18.23;;
73857;SDS011;62195;55.030;73.278;2022-09-25T00:29:08;42.15;;;15.55;;
73857;SDS011;62195;55.030;73.278;2022-09-25T00:31:41;33.83;;;14.35;;
73857;SDS011;62195;55.030;73.278;2022-09-25T00:34:08;31.17;;;15.38;;
73857;SDS011;62195;55.030;73.278;2022-09-25T00:36:36;36.22;;;15.30;;
73857;SDS011;62195;55.030;73.278;2022-09-25T00:39:03;41.17;;;15.13;;
73857;SDS011;62195;55.030;73.278;2022-09-25T00:41:29;41.97;;;17.02;;
73857;SDS011;62195;55.030;73.278;2022-09-25T00:47:11;58.85;;;16.98;;
73857;SDS011;62195;55.030;73.278;2022-09-25T00:49:40;47.58;;;16.60;;
73857;SDS011;62195;55.030;73.278;2022-09-25T00:52:08;49.28;;;17.38;;
73857;SDS011;62195;55.030;73.278;2022-09-25T00:54:53;49.90;;;17.65;;
73857;SDS011;62195;55.030;73.278;2022-09-25T00:57:24;43.75;;;18.30;;
73857;SDS011;62195;55.030;73.278;2022-09-25T00:59:58;68.40;;;19.48;;
73857;SDS011;62195;55.030;73.278;2022-09-25T01:02:44;54.47;;;18.20;;
73857;SDS011;62195;55.030;73.278;2022-09-25T01:05:18;40.97;;;18.08;;
73857;SDS011;62195;55.030;73.278;2022-09-25T01:07:48;53.42;;;17.65;;
73857;SDS011;62195;55.030;73.278;2022-09-25T01:10:18;40.40;;;16.33;;
73857;SDS011;62195;55.030;73.278;2022-09-25T01:12:45;31.92;;;16.33;;
73857;SDS011;62195;55.030;73.278;2022-09-25T01:15:14;38.85;;;16.58;;
73857;SDS011;62195;55.030;73.278;2022-09-25T01:29:21;45.22;;;14.98;;
73857;SDS011;62195;55.030;73.278;2022-09-25T01:32:39;33.80;;;14.98;;
73857;SDS011;62195;55.030;73.278;2022-09-25T01:35:01;38.58;;;15.48;;
73857;SDS011;62195;55.030;73.278;2022-09-25T01:40:28;37.72;;;15.60;;
73857;SDS011;62195;55.030;73.278;2022-09-25T01:43:49;33.35;;;14.20;;
73857;SDS011;62195;55.030;73.278;2022-09-25T01:45:59;33.92;;;14.18;;
73857;SDS011;62195;55.030;73.278;2022-09-25T01:48:31;32.50;;;14.68;;
73857;SDS011;62195;55.030;73.278;2022-09-25T01:51:02;44.60;;;15.38;;
73857;SDS011;62195;55.030;73.278;2022-09-25T01:56:06;29.58;;;14.77;;
73857;SDS011;62195;55.030;73.278;2022-09-25T01:58:41;43.30;;;16.40;;
73857;SDS011;62195;55.030;73.278;2022-09-25T02:01:19;41.40;;;16.88;;
73857;SDS011;62195;55.030;73.278;2022-09-25T02:03:57;39.22;;;17.33;;
73857;SDS011;62195;55.030;73.278;2022-09-25T02:06:28;33.97;;;17.17;;
73857;SDS011;62195;55.030;73.278;2022-09-25T02:09:06;40.88;;;18.42;;
73857;SDS011;62195;55.030;73.278;2022-09-25T02:11:39;35.15;;;17.95;;
73857;SDS011;62195;55.030;73.278;2022-09-25T02:14:31;40.35;;;17.65;;
73857;SDS011;62195;55.030;73.278;2022-09-25T02:17:00;37.67;;;19.02;;
73857;SDS011;62195;55.030;73.278;2022-09-25T02:19:32;39.30;;;18.80;;
73857;SDS011;62195;55.030;73.278;2022-09-25T02:22:18;40.88;;;17.92;;
73857;SDS011;62195;55.030;73.278;2022-09-25T02:25:06;44.58;;;17.60;;
73857;SDS011;62195;55.030;73.278;2022-09-25T02:27:39;37.65;;;16.98;;
73857;SDS011;62195;55.030;73.278;2022-09-25T02:53:36;38.47;;;12.93;;
73857;SDS011;62195;55.030;73.278;2022-09-25T02:56:15;25.88;;;12.38;;
73857;SDS011;62195;55.030;73.278;2022-09-25T02:59:02;34.38;;;13.85;;
73857;SDS011;62195;55.030;73.278;2022-09-25T03:01:33;48.65;;;14.57;;
73857;SDS011;62195;55.030;73.278;2022-09-25T03:04:03;31.63;;;13.52;;
73857;SDS011;62195;55.030;73.278;2022-09-25T03:06:31;36.13;;;13.63;;
73857;SDS011;62195;55.030;73.278;2022-09-25T03:08:58;35.63;;;14.07;;
73857;SDS011;62195;55.030;73.278;2022-09-25T03:11:26;30.60;;;14.88;;
73857;SDS011;62195;55.030;73.278;2022-09-25T03:13:59;35.92;;;15.40;;
73857;SDS011;62195;55.030;73.278;2022-09-25T03:19:05;35.15;;;16.02;;
73857;SDS011;62195;55.030;73.278;2022-09-25T03:21:32;33.70;;;16.40;;
73857;SDS011;62195;55.030;73.278;2022-09-25T03:23:58;39.70;;;18.58;;
73857;SDS011;62195;55.030;73.278;2022-09-25T03:26:25;49.35;;;18.85;;
73857;SDS011;62195;55.030;73.278;2022-09-25T03:28:55;36.78;;;18.55;;
73857;SDS011;62195;55.030;73.278;2022-09-25T03:31:21;45.47;;;20.75;;
73857;SDS011;62195;55.030;73.278;2022-09-25T03:33:51;50.53;;;21.95;;
73857;SDS011;62195;55.030;73.278;2022-09-25T03:36:19;54.83;;;22.50;;
73857;SDS011;62195;55.030;73.278;2022-09-25T03:38:47;52.22;;;22.95;;
73857;SDS011;62195;55.030;73.278;2022-09-25T03:41:17;49.35;;;24.08;;
73857;SDS011;62195;55.030;73.278;2022-09-25T03:43:46;50.25;;;23.50;;
73857;SDS011;62195;55.030;73.278;2022-09-25T03:46:16;45.20;;;22.95;;
73857;SDS011;62195;55.030;73.278;2022-09-25T03:48:44;49.95;;;22.80;;
73857;SDS011;62195;55.030;73.278;2022-09-25T03:51:11;45.20;;;22.65;;
73857;SDS011;62195;55.030;73.278;2022-09-25T03:53:48;44.15;;;24.10;;
73857;SDS011;62195;55.030;73.278;2022-09-25T03:56:26;49.35;;;24.60;;
73857;SDS011;62195;55.030;73.278;2022-09-25T03:58:54;51.47;;;25.63;;
73857;SDS011;62195;55.030;73.278;2022-09-25T04:01:21;46.40;;;23.83;;
73857;SDS011;62195;55.030;73.278;2022-09-25T04:03:54;42.15;;;22.92;;
73857;SDS011;62195;55.030;73.278;2022-09-25T04:06:25;57.42;;;23.05;;
73857;SDS011;62195;55.030;73.278;2022-09-25T04:08:52;40.67;;;21.08;;
73857;SDS011;62195;55.030;73.278;2022-09-25T04:11:19;43.97;;;19.83;;
73857;SDS011;62195;55.030;73.278;2022-09-25T04:13:48;37.83;;;20.85;;
73857;SDS011;62195;55.030;73.278;2022-09-25T04:16:15;47.38;;;21.15;;
73857;SDS011;62195;55.030;73.278;2022-09-25T04:18:43;47.15;;;20.50;;
73857;SDS011;62195;55.030;73.278;2022-09-25T04:21:10;36.85;;;18.90;;
73857;SDS011;62195;55.030;73.278;2022-09-25T04:23:38;35.08;;;18.33;;
73857;SDS011;62195;55.030;73.278;2022-09-25T04:26:05;38.17;;;18.73;;
73857;SDS011;62195;55.030;73.278;2022-09-25T04:28:32;37.75;;;19.33;;
73857;SDS011;62195;55.030;73.278;2022-09-25T04:30:58;41.20;;;18.48;;
73857;SDS011;62195;55.030;73.278;2022-09-25T04:33:25;44.65;;;19.77;;
73857;SDS011;62195;55.030;73.278;2022-09-25T04:36:10;42.28;;;19.42;;
73857;SDS011;62195;55.030;73.278;2022-09-25T04:38:36;40.38;;;20.58;;
73857;SDS011;62195;55.030;73.278;2022-09-25T04:41:03;43.88;;;18.58;;
73857;SDS011;62195;55.030;73.278;2022-09-25T04:43:39;35.65;;;18.52;;
73857;SDS011;62195;55.030;73.278;2022-09-25T04:46:08;34.90;;;17.38;;
73857;SDS011;62195;55.030;73.278;2022-09-25T04:48:36;56.92;;;19.63;;
73857;SDS011;62195;55.030;73.278;2022-09-25T04:51:10;36.90;;;17.92;;
73857;SDS011;62195;55.030;73.278;2022-09-25T04:53:36;41.47;;;17.85;;
73857;SDS011;62195;55.030;73.278;2022-09-25T04:56:04;37.03;;;17.20;;
73857;SDS011;62195;55.030;73.278;2022-09-25T04:58:32;39.78;;;21.02;;
73857;SDS011;62195;55.030;73.278;2022-09-25T05:01:02;37.95;;;17.17;;
73857;SDS011;62195;55.030;73.278;2022-09-25T05:03:29;33.33;;;16.75;;
73857;SDS011;62195;55.030;73.278;2022-09-25T05:06:00;32.90;;;15.15;;
73857;SDS011;62195;55.030;73.278;2022-09-25T05:08:32;28.95;;;14.63;;
73857;SDS011;62195;55.030;73.278;2022-09-25T05:10:58;29.08;;;14.15;;
73857;SDS011;62195;55.030;73.278;2022-09-25T05:13:24;31.80;;;13.38;;
73857;SDS011;62195;55.030;73.278;2022-09-25T05:15:53;34.63;;;13.48;;
73857;SDS011;62195;55.030;73.278;2022-09-25T05:18:21;29.23;;;12.68;;
73857;SDS011;62195;55.030;73.278;2022-09-25T05:20:49;43.58;;;13.57;;
73857;SDS011;62195;55.030;73.278;2022-09-25T05:23:16;25.17;;;12.27;;
73857;SDS011;62195;55.030;73.278;2022-09-25T05:25:42;29.00;;;13.68;;
73857;SDS011;62195;55.030;73.278;2022-09-25T05:28:08;24.83;;;12.95;;
73857;SDS011;62195;55.030;73.278;2022-09-25T05:30:36;26.17;;;12.52;;
73857;SDS011;62195;55.030;73.278;2022-09-25T05:33:04;24.25;;;12.23;;
73857;SDS011;62195;55.030;73.278;2022-09-25T05:35:31;28.42;;;13.70;;
73857;SDS011;62195;55.030;73.278;2022-09-25T05:37:58;24.98;;;12.10;;
73857;SDS011;62195;55.030;73.278;2022-09-25T05:40:29;26.25;;;12.15;;
73857;SDS011;62195;55.030;73.278;2022-09-25T05:42:55;22.92;;;12.27;;
73857;SDS011;62195;55.030;73.278;2022-09-25T05:45:21;24.83;;;11.88;;
73857;SDS011;62195;55.030;73.278;2022-09-25T05:48:04;36.50;;;13.77;;
73857;SDS011;62195;55.030;73.278;2022-09-25T05:50:31;24.52;;;12.73;;
73857;SDS011;62195;55.030;73.278;2022-09-25T05:53:09;22.48;;;12.10;;
73857;SDS011;62195;55.030;73.278;2022-09-25T05:55:36;26.80;;;13.85;;
73857;SDS011;62195;55.030;73.278;2022-09-25T05:58:07;25.73;;;11.05;;
73857;SDS011;62195;55.030;73.278;2022-09-25T06:00:33;44.67;;;22.00;;
73857;SDS011;62195;55.030;73.278;2022-09-25T06:03:00;35.38;;;18.65;;
73857;SDS011;62195;55.030;73.278;2022-09-25T06:05:26;41.90;;;14.02;;
73857;SDS011;62195;55.030;73.278;2022-09-25T06:07:53;21.23;;;9.32;;
73857;SDS011;62195;55.030;73.278;2022-09-25T06:10:25;18.83;;;9.53;;
73857;SDS011;62195;55.030;73.278;2022-09-25T06:13:02;21.40;;;9.38;;
73857;SDS011;62195;55.030;73.278;2022-09-25T06:15:35;20.92;;;9.65;;
73857;SDS011;62195;55.030;73.278;2022-09-25T06:18:05;20.45;;;10.02;;
73857;SDS011;62195;55.030;73.278;2022-09-25T06:20:38;26.80;;;11.07;;
73857;SDS011;62195;55.030;73.278;2022-09-25T06:23:04;25.92;;;11.43;;
73857;SDS011;62195;55.030;73.278;2022-09-25T06:25:35;17.23;;;9.60;;
73857;SDS011;62195;55.030;73.278;2022-09-25T06:28:02;24.00;;;10.32;;
73857;SDS011;62195;55.030;73.278;2022-09-25T06:30:29;25.00;;;11.70;;
73857;SDS011;62195;55.030;73.278;2022-09-25T06:33:12;25.98;;;13.35;;
73857;SDS011;62195;55.030;73.278;2022-09-25T06:35:40;24.58;;;12.07;;
73857;SDS011;62195;55.030;73.278;2022-09-25T06:38:07;44.83;;;24.55;;
73857;SDS011;62195;55.030;73.278;2022-09-25T06:40:34;28.10;;;14.52;;
73857;SDS011;62195;55.030;73.278;2022-09-25T06:43:03;23.13;;;11.40;;
73857;SDS011;62195;55.030;73.278;2022-09-25T06:45:30;22.73;;;10.10;;
73857;SDS011;62195;55.030;73.278;2022-09-25T06:50:36;15.95;;;8.48;;
73857;SDS011;62195;55.030;73.278;2022-09-25T06:53:06;22.98;;;9.90;;
73857;SDS011;62195;55.030;73.278;2022-09-25T06:55:33;29.65;;;13.85;;
73857;SDS011;62195;55.030;73.278;2022-09-25T06:58:04;23.90;;;10.43;;
73857;SDS011;62195;55.030;73.278;2022-09-25T07:00:33;27.85;;;10.88;;
73857;SDS011;62195;55.030;73.278;2022-09-25T07:02:59;31.20;;;12.95;;
73857;SDS011;62195;55.030;73.278;2022-09-25T07:05:53;23.50;;;12.55;;
73857;SDS011;62195;55.030;73.278;2022-09-25T07:08:20;38.25;;;11.43;;
73857;SDS011;62195;55.030;73.278;2022-09-25T07:10:51;19.02;;;7.80;;
73857;SDS011;62195;55.030;73.278;2022-09-25T07:13:26;15.45;;;8.13;;
73857;SDS011;62195;55.030;73.278;2022-09-25T07:16:05;19.90;;;8.95;;
73857;SDS011;62195;55.030;73.278;2022-09-25T07:18:33;22.92;;;9.60;;
73857;SDS011;62195;55.030;73.278;2022-09-25T07:21:07;20.85;;;10.18;;
73857;SDS011;62195;55.030;73.278;2022-09-25T07:23:35;24.67;;;13.00;;
73857;SDS011;62195;55.030;73.278;2022-09-25T07:26:09;23.88;;;11.38;;
73857;SDS011;62195;55.030;73.278;2022-09-25T07:28:38;18.75;;;10.77;;
73857;SDS011;62195;55.030;73.278;2022-09-25T07:33:44;48.17;;;20.95;;
73857;SDS011;62195;55.030;73.278;2022-09-25T07:36:11;30.58;;;14.43;;
73857;SDS011;62195;55.030;73.278;2022-09-25T07:38:38;29.40;;;13.20;;
73857;SDS011;62195;55.030;73.278;2022-09-25T07:41:06;15.13;;;7.90;;
73857;SDS011;62195;55.030;73.278;2022-09-25T07:43:34;17.02;;;7.38;;
73857;SDS011;62195;55.030;73.278;2022-09-25T07:46:03;16.13;;;7.57;;
73857;SDS011;62195;55.030;73.278;2022-09-25T07:48:30;17.45;;;7.20;;
73857;SDS011;62195;55.030;73.278;2022-09-25T07:51:00;18.05;;;7.55;;
73857;SDS011;62195;55.030;73.278;2022-09-25T07:53:40;13.55;;;6.55;;
73857;SDS011;62195;55.030;73.278;2022-09-25T07:56:08;19.10;;;7.53;;
73857;SDS011;62195;55.030;73.278;2022-09-25T07:58:36;21.48;;;8.88;;
73857;SDS011;62195;55.030;73.278;2022-09-25T08:01:04;18.55;;;9.07;;
73857;SDS011;62195;55.030;73.278;2022-09-25T08:03:32;12.93;;;7.47;;
73857;SDS011;62195;55.030;73.278;2022-09-25T08:05:59;15.48;;;7.70;;
73857;SDS011;62195;55.030;73.278;2022-09-25T08:08:27;17.15;;;7.55;;
73857;SDS011;62195;55.030;73.278;2022-09-25T08:10:59;15.70;;;7.28;;
73857;SDS011;62195;55.030;73.278;2022-09-25T08:13:29;12.43;;;6.32;;
73857;SDS011;62195;55.030;73.278;2022-09-25T08:16:07;15.10;;;6.63;;
73857;SDS011;62195;55.030;73.278;2022-09-25T08:18:36;12.43;;;6.60;;
73857;SDS011;62195;55.030;73.278;2022-09-25T08:21:06;18.08;;;7.38;;
73857;SDS011;62195;55.030;73.278;2022-09-25T08:23:33;15.85;;;6.97;;
73857;SDS011;62195;55.030;73.278;2022-09-25T08:26:05;15.02;;;6.78;;
73857;SDS011;62195;55.030;73.278;2022-09-25T08:28:31;12.48;;;6.65;;
73857;SDS011;62195;55.030;73.278;2022-09-25T08:30:58;14.50;;;6.40;;
73857;SDS011;62195;55.030;73.278;2022-09-25T08:33:25;10.27;;;6.50;;
73857;SDS011;62195;55.030;73.278;2022-09-25T08:35:54;14.70;;;6.28;;
73857;SDS011;62195;55.030;73.278;2022-09-25T08:38:28;15.27;;;7.43;;
73857;SDS011;62195;55.030;73.278;2022-09-25T08:41:01;14.32;;;7.50;;
73857;SDS011;62195;55.030;73.278;2022-09-25T08:43:43;12.38;;;6.63;;
73857;SDS011;62195;55.030;73.278;2022-09-25T08:49:38;19.23;;;7.82;;
73857;SDS011;62195;55.030;73.278;2022-09-25T08:52:13;18.13;;;8.43;;
73857;SDS011;62195;55.030;73.278;2022-09-25T08:54:43;15.10;;;6.55;;
73857;SDS011;62195;55.030;73.278;2022-09-25T08:59:45;17.50;;;6.97;;
73857;SDS011;62195;55.030;73.278;2022-09-25T09:02:43;14.65;;;7.18;;
73857;SDS011;62195;55.030;73.278;2022-09-25T09:05:34;18.08;;;8.55;;
73857;SDS011;62195;55.030;73.278;2022-09-25T09:08:09;16.90;;;8.10;;
73857;SDS011;62195;55.030;73.278;2022-09-25T09:10:47;18.17;;;6.63;;
73857;SDS011;62195;55.030;73.278;2022-09-25T09:16:01;14.55;;;8.15;;
73857;SDS011;62195;55.030;73.278;2022-09-25T09:18:40;14.70;;;7.93;;
73857;SDS011;62195;55.030;73.278;2022-09-25T09:31:50;16.27;;;8.95;;
73857;SDS011;62195;55.030;73.278;2022-09-25T09:40:19;17.38;;;7.65;;
73857;SDS011;62195;55.030;73.278;2022-09-25T09:42:57;12.50;;;7.22;;
73857;SDS011;62195;55.030;73.278;2022-09-25T09:45:43;18.60;;;7.55;;
73857;SDS011;62195;55.030;73.278;2022-09-25T09:48:22;15.40;;;7.30;;
73857;SDS011;62195;55.030;73.278;2022-09-25T09:51:02;18.85;;;6.50;;
73857;SDS011;62195;55.030;73.278;2022-09-25T09:56:24;15.88;;;6.65;;
73857;SDS011;62195;55.030;73.278;2022-09-25T09:58:56;15.27;;;7.63;;
73857;SDS011;62195;55.030;73.278;2022-09-25T10:01:27;18.63;;;7.15;;
73857;SDS011;62195;55.030;73.278;2022-09-25T10:04:01;12.97;;;7.07;;
73857;SDS011;62195;55.030;73.278;2022-09-25T10:07:24;16.80;;;6.90;;
73857;SDS011;62195;55.030;73.278;2022-09-25T10:09:38;10.13;;;7.03;;
73857;SDS011;62195;55.030;73.278;2022-09-25T10:12:06;15.20;;;8.25;;
73857;SDS011;62195;55.030;73.278;2022-09-25T10:14:48;19.52;;;8.18;;
73857;SDS011;62195;55.030;73.278;2022-09-25T10:17:19;27.88;;;12.52;;
73857;SDS011;62195;55.030;73.278;2022-09-25T10:19:53;16.00;;;8.00;;
73857;SDS011;62195;55.030;73.278;2022-09-25T10:24:54;17.10;;;9.90;;
73857;SDS011;62195;55.030;73.278;2022-09-25T10:32:45;26.80;;;11.02;;
73857;SDS011;62195;55.030;73.278;2022-09-25T10:35:18;40.63;;;12.52;;
73857;SDS011;62195;55.030;73.278;2022-09-25T10:37:50;21.63;;;9.45;;
73857;SDS011;62195;55.030;73.278;2022-09-25T10:40:23;20.33;;;8.20;;
73857;SDS011;62195;55.030;73.278;2022-09-25T10:45:36;23.77;;;9.15;;
73857;SDS011;62195;55.030;73.278;2022-09-25T10:48:36;18.65;;;10.02;;
73857;SDS011;62195;55.030;73.278;2022-09-25T10:51:22;21.27;;;10.85;;
73857;SDS011;62195;55.030;73.278;2022-09-25T10:53:51;20.45;;;11.35;;
73857;SDS011;62195;55.030;73.278;2022-09-25T10:56:34;27.42;;;11.77;;
73857;SDS011;62195;55.030;73.278;2022-09-25T10:59:19;23.27;;;11.40;;
73857;SDS011;62195;55.030;73.278;2022-09-25T11:01:49;18.23;;;10.70;;
73857;SDS011;62195;55.030;73.278;2022-09-25T11:04:28;22.80;;;11.20;;
73857;SDS011;62195;55.030;73.278;2022-09-25T11:07:01;20.80;;;11.25;;
73857;SDS011;62195;55.030;73.278;2022-09-25T11:09:32;20.25;;;10.13;;
73857;SDS011;62195;55.030;73.278;2022-09-25T11:12:33;18.30;;;8.48;;
73857;SDS011;62195;55.030;73.278;2022-09-25T11:15:03;20.55;;;9.48;;
73857;SDS011;62195;55.030;73.278;2022-09-25T11:17:37;20.65;;;9.32;;
73857;SDS011;62195;55.030;73.278;2022-09-25T11:28:15;23.55;;;10.43;;
73857;SDS011;62195;55.030;73.278;2022-09-25T11:31:19;16.90;;;10.38;;
73857;SDS011;62195;55.030;73.278;2022-09-25T11:33:53;22.63;;;10.10;;
73857;SDS011;62195;55.030;73.278;2022-09-25T11:36:41;20.83;;;11.40;;
73857;SDS011;62195;55.030;73.278;2022-09-25T11:40:04;29.65;;;12.05;;
73857;SDS011;62195;55.030;73.278;2022-09-25T11:42:54;19.85;;;11.48;;
73857;SDS011;62195;55.030;73.278;2022-09-25T11:48:09;18.48;;;11.07;;
73857;SDS011;62195;55.030;73.278;2022-09-25T11:53:37;22.88;;;11.20;;
73857;SDS011;62195;55.030;73.278;2022-09-25T11:56:09;18.08;;;11.55;;
73857;SDS011;62195;55.030;73.278;2022-09-25T11:59:01;27.88;;;11.85;;
73857;SDS011;62195;55.030;73.278;2022-09-25T12:01:59;26.85;;;12.95;;
73857;SDS011;62195;55.030;73.278;2022-09-25T12:08:25;21.58;;;11.35;;
73857;SDS011;62195;55.030;73.278;2022-09-25T12:11:15;21.77;;;10.60;;
73857;SDS011;62195;55.030;73.278;2022-09-25T12:19:41;21.08;;;10.60;;
73857;SDS011;62195;55.030;73.278;2022-09-25T12:24:48;22.45;;;11.38;;
73857;SDS011;62195;55.030;73.278;2022-09-25T12:30:24;19.38;;;11.38;;
73857;SDS011;62195;55.030;73.278;2022-09-25T12:33:22;18.73;;;10.07;;
73857;SDS011;62195;55.030;73.278;2022-09-25T12:41:17;18.17;;;10.23;;
73857;SDS011;62195;55.030;73.278;2022-09-25T12:47:02;20.45;;;11.65;;
73857;SDS011;62195;55.030;73.278;2022-09-25T12:52:18;22.30;;;11.73;;
73857;SDS011;62195;55.030;73.278;2022-09-25T12:57:51;24.70;;;13.88;;
73857;SDS011;62195;55.030;73.278;2022-09-25T13:00:24;23.35;;;13.25;;
73857;SDS011;62195;55.030;73.278;2022-09-25T13:05:31;21.83;;;11.43;;
73857;SDS011;62195;55.030;73.278;2022-09-25T13:13:21;20.50;;;13.25;;
73857;SDS011;62195;55.030;73.278;2022-09-25T13:15:55;20.45;;;12.48;;
73857;SDS011;62195;55.030;73.278;2022-09-25T13:18:33;21.27;;;12.13;;
73857;SDS011;62195;55.030;73.278;2022-09-25T13:21:45;20.60;;;11.45;;
73857;SDS011;62195;55.030;73.278;2022-09-25T13:26:21;19.08;;;10.30;;
73857;SDS011;62195;55.030;73.278;2022-09-25T13:32:16;15.23;;;9.05;;
73857;SDS011;62195;55.030;73.278;2022-09-25T13:34:44;13.90;;;8.75;;
73857;SDS011;62195;55.030;73.278;2022-09-25T13:37:11;20.63;;;9.05;;
73857;SDS011;62195;55.030;73.278;2022-09-25T13:39:41;17.38;;;9.65;;
73857;SDS011;62195;55.030;73.278;2022-09-25T13:45:04;21.95;;;9.30;;
73857;SDS011;62195;55.030;73.278;2022-09-25T13:58:25;22.65;;;9.05;;
73857;SDS011;62195;55.030;73.278;2022-09-25T14:00:54;16.75;;;8.38;;
73857;SDS011;62195;55.030;73.278;2022-09-25T14:06:22;15.68;;;8.70;;
73857;SDS011;62195;55.030;73.278;2022-09-25T14:08:58;12.02;;;6.63;;
73857;SDS011;62195;55.030;73.278;2022-09-25T14:11:33;11.60;;;6.68;;
73857;SDS011;62195;55.030;73.278;2022-09-25T14:14:12;12.73;;;5.30;;
73857;SDS011;62195;55.030;73.278;2022-09-25T14:16:47;7.90;;;4.90;;
73857;SDS011;62195;55.030;73.278;2022-09-25T14:19:20;7.25;;;4.43;;
73857;SDS011;62195;55.030;73.278;2022-09-25T14:21:55;10.50;;;5.03;;
73857;SDS011;62195;55.030;73.278;2022-09-25T14:24:25;11.73;;;5.38;;
73857;SDS011;62195;55.030;73.278;2022-09-25T14:26:59;8.13;;;5.10;;
73857;SDS011;62195;55.030;73.278;2022-09-25T14:29:37;12.25;;;5.90;;
73857;SDS011;62195;55.030;73.278;2022-09-25T14:35:36;6.43;;;4.40;;
73857;SDS011;62195;55.030;73.278;2022-09-25T14:38:14;8.20;;;3.92;;
73857;SDS011;62195;55.030;73.278;2022-09-25T14:44:05;6.43;;;3.70;;
73857;SDS011;62195;55.030;73.278;2022-09-25T14:46:46;7.30;;;3.40;;
73857;SDS011;62195;55.030;73.278;2022-09-25T14:52:22;10.65;;;3.50;;
73857;SDS011;62195;55.030;73.278;2022-09-25T14:54:53;7.25;;;3.42;;
73857;SDS011;62195;55.030;73.278;2022-09-25T14:57:25;15.15;;;3.63;;
73857;SDS011;62195;55.030;73.278;2022-09-25T14:59:56;8.52;;;3.20;;
73857;SDS011;62195;55.030;73.278;2022-09-25T15:02:36;18.42;;;3.50;;
73857;SDS011;62195;55.030;73.278;2022-09-25T15:05:23;10.50;;;3.55;;
73857;SDS011;62195;55.030;73.278;2022-09-25T15:07:53;14.70;;;3.10;;
73857;SDS011;62195;55.030;73.278;2022-09-25T15:12:53;14.98;;;3.00;;
73857;SDS011;62195;55.030;73.278;2022-09-25T15:15:23;14.73;;;3.05;;
73857;SDS011;62195;55.030;73.278;2022-09-25T15:17:53;6.93;;;2.75;;
73857;SDS011;62195;55.030;73.278;2022-09-25T15:20:25;9.45;;;2.90;;
73857;SDS011;62195;55.030;73.278;2022-09-25T15:22:55;7.70;;;2.97;;
73857;SDS011;62195;55.030;73.278;2022-09-25T15:25:27;4.38;;;2.42;;
73857;SDS011;62195;55.030;73.278;2022-09-25T15:28:04;4.43;;;2.63;;
73857;SDS011;62195;55.030;73.278;2022-09-25T15:30:32;5.90;;;2.78;;
73857;SDS011;62195;55.030;73.278;2022-09-25T15:33:01;4.47;;;2.63;;
73857;SDS011;62195;55.030;73.278;2022-09-25T15:35:28;3.72;;;2.50;;
73857;SDS011;62195;55.030;73.278;2022-09-25T15:38:11;4.20;;;2.33;;
73857;SDS011;62195;55.030;73.278;2022-09-25T15:40:38;3.97;;;2.10;;
73857;SDS011;62195;55.030;73.278;2022-09-25T15:43:11;3.67;;;2.60;;
73857;SDS011;62195;55.030;73.278;2022-09-25T15:45:47;3.95;;;2.40;;
73857;SDS011;62195;55.030;73.278;2022-09-25T15:50:52;3.15;;;2.28;;
73857;SDS011;62195;55.030;73.278;2022-09-25T15:53:41;5.18;;;2.55;;
73857;SDS011;62195;55.030;73.278;2022-09-25T15:59:18;4.45;;;2.80;;
73857;SDS011;62195;55.030;73.278;2022-09-25T16:01:48;3.72;;;2.97;;
73857;SDS011;62195;55.030;73.278;2022-09-25T16:04:33;4.65;;;3.00;;
73857;SDS011;62195;55.030;73.278;2022-09-25T16:07:28;6.72;;;3.72;;
73857;SDS011;62195;55.030;73.278;2022-09-25T16:10:04;5.97;;;2.97;;
73857;SDS011;62195;55.030;73.278;2022-09-25T16:15:49;2.72;;;2.13;;
73857;SDS011;62195;55.030;73.278;2022-09-25T16:20:55;5.45;;;3.00;;
73857;SDS011;62195;55.030;73.278;2022-09-25T16:23:28;5.50;;;2.70;;
73857;SDS011;62195;55.030;73.278;2022-09-25T16:25:55;3.70;;;2.38;;
73857;SDS011;62195;55.030;73.278;2022-09-25T16:28:26;4.30;;;2.70;;
73857;SDS011;62195;55.030;73.278;2022-09-25T16:33:35;6.18;;;2.90;;
73857;SDS011;62195;55.030;73.278;2022-09-25T16:36:14;5.40;;;2.50;;
73857;SDS011;62195;55.030;73.278;2022-09-25T16:39:10;3.60;;;2.60;;
73857;SDS011;62195;55.030;73.278;2022-09-25T16:41:44;3.47;;;2.70;;
73857;SDS011;62195;55.030;73.278;2022-09-25T16:47:03;3.65;;;2.65;;
73857;SDS011;62195;55.030;73.278;2022-09-25T16:49:41;5.50;;;2.58;;
73857;SDS011;62195;55.030;73.278;2022-09-25T16:52:21;6.53;;;2.67;;
73857;SDS011;62195;55.030;73.278;2022-09-25T16:54:52;3.58;;;2.78;;
73857;SDS011;62195;55.030;73.278;2022-09-25T16:57:22;4.13;;;2.40;;
73857;SDS011;62195;55.030;73.278;2022-09-25T16:59:52;4.57;;;2.97;;
73857;SDS011;62195;55.030;73.278;2022-09-25T17:02:20;4.68;;;3.10;;
73857;SDS011;62195;55.030;73.278;2022-09-25T17:05:07;6.07;;;3.08;;
73857;SDS011;62195;55.030;73.278;2022-09-25T17:07:46;10.07;;;3.95;;
73857;SDS011;62195;55.030;73.278;2022-09-25T17:10:27;8.02;;;3.90;;
73857;SDS011;62195;55.030;73.278;2022-09-25T17:13:01;5.82;;;3.17;;
73857;SDS011;62195;55.030;73.278;2022-09-25T17:15:28;4.65;;;3.08;;
73857;SDS011;62195;55.030;73.278;2022-09-25T17:17:58;4.30;;;3.22;;
73857;SDS011;62195;55.030;73.278;2022-09-25T17:20:36;5.43;;;3.13;;
73857;SDS011;62195;55.030;73.278;2022-09-25T17:23:03;5.30;;;2.70;;
73857;SDS011;62195;55.030;73.278;2022-09-25T17:28:19;4.18;;;3.03;;
73857;SDS011;62195;55.030;73.278;2022-09-25T17:30:45;6.28;;;2.90;;
73857;SDS011;62195;55.030;73.278;2022-09-25T17:33:15;4.45;;;3.20;;
73857;SDS011;62195;55.030;73.278;2022-09-25T17:35:59;5.93;;;3.10;;
73857;SDS011;62195;55.030;73.278;2022-09-25T17:38:29;11.93;;;2.90;;
73857;SDS011;62195;55.030;73.278;2022-09-25T17:43:42;7.20;;;2.72;;
73857;SDS011;62195;55.030;73.278;2022-09-25T17:46:09;3.88;;;2.50;;
73857;SDS011;62195;55.030;73.278;2022-09-25T17:48:35;2.97;;;2.40;;
73857;SDS011;62195;55.030;73.278;2022-09-25T17:51:03;3.15;;;2.60;;
73857;SDS011;62195;55.030;73.278;2022-09-25T17:53:45;3.72;;;2.50;;
73857;SDS011;62195;55.030;73.278;2022-09-25T17:56:13;3.60;;;2.17;;
73857;SDS011;62195;55.030;73.278;2022-09-25T17:58:40;3.70;;;2.65;;
73857;SDS011;62195;55.030;73.278;2022-09-25T18:01:11;3.15;;;2.30;;
73857;SDS011;62195;55.030;73.278;2022-09-25T18:06:19;3.22;;;2.25;;
73857;SDS011;62195;55.030;73.278;2022-09-25T18:08:51;2.58;;;2.20;;
73857;SDS011;62195;55.030;73.278;2022-09-25T18:11:19;3.85;;;2.55;;